Flight Track Log - Related Links

Times and Time Zones

All times are in EDT time to prevent confusion due to time zone crossing. See the ASQ4516 flight status page for this flight to view local times or setup timezone preferences in your user account.

Time Position Orientation Groundspeed Altitude Reporting Facility
EDT Latitude Longitude Course Direction KTS MPH feet Rate Location/Type
Sun 03:42:49 PM 33.6500 -84.4500 287° West 167 192 1,800  Level Atlanta TRACON
Sun 03:43:49 PM 33.6667 -84.5167 287° West 230 265 3,000 1,700 Climbing Atlanta TRACON
Sun 03:44:49 PM 33.7000 -84.6000 296° West 266 306 5,200 2,095 Climbing Atlanta TRACON
Sun 03:45:55 PM 33.7333 -84.6833 296° West 277 319 7,400 1,797 Climbing Atlanta TRACON
Sun 03:47:56 PM 33.7414 -84.8706 273° West 290 334 10,800 1,492 Climbing Atlanta Center
Sun 03:48:56 PM 33.7406 -84.9731 269° West 298 343 11,900 1,050 Climbing Atlanta Center
Sun 03:49:56 PM 33.7417 -85.0956 271° West 318 366 12,900 1,000 Climbing Atlanta Center
Sun 03:50:56 PM 33.7428 -85.2081 271° West 338 389 13,900 1,000 Climbing Atlanta Center
Sun 03:51:56 PM 33.7061 -85.3172 248° West 344 396 14,900 1,200 Climbing Atlanta Center
Sun 03:52:56 PM 33.6572 -85.4139 239° Southwest 344 396 16,300 1,450 Climbing Atlanta Center
Sun 03:53:56 PM 33.6019 -85.5053 234° Southwest 344 396 17,800 1,450 Climbing Atlanta Center
Sun 03:54:56 PM 33.5364 -85.5739 221° Southwest 331 381 19,200 1,400 Climbing Atlanta Center
Sun 03:55:56 PM 33.4667 -85.6425 219° Southwest 325 374 20,600 1,450 Climbing Atlanta Center
Sun 03:56:56 PM 33.4031 -85.7111 222° Southwest 319 367 22,100 1,500 Climbing Atlanta Center
Sun 03:57:56 PM 33.3375 -85.7769 220° Southwest 319 367 23,600 1,250 Climbing Atlanta Center
Sun 03:58:56 PM 33.2803 -85.8328 219° Southwest 314 361 24,600 1,000 Climbing Atlanta Center
Sun 03:59:56 PM 33.2125 -85.9011 220° Southwest 314 361 25,600 850 Climbing Atlanta Center
Sun 04:00:56 PM 33.1467 -85.9667 220° Southwest 314 361 26,300 650 Climbing Atlanta Center
Sun 04:01:56 PM 33.0683 -86.0492 221° Southwest 326 375 26,900 700 Climbing Atlanta Center
Sun 04:02:56 PM 32.9958 -86.1267 222° Southwest 341 392 27,700 850 Climbing Atlanta Center
Sun 04:03:56 PM 32.9217 -86.1992 219° Southwest 353 406 28,600 950 Climbing Atlanta Center
Sun 04:04:56 PM 32.8514 -86.2692 220° Southwest 347 399 29,600 1,150 Climbing Atlanta Center
Sun 04:05:56 PM 32.7814 -86.3392 220° Southwest 337 388 30,900 1,350 Climbing Atlanta Center
Sun 04:06:56 PM 32.7153 -86.4089 222° Southwest 337 388 32,300 1,200 Climbing Atlanta Center
Sun 04:07:56 PM 32.6492 -86.4761 221° Southwest 326 375 33,300 1,000 Climbing Atlanta Center
Sun 04:08:56 PM 32.5856 -86.5386 220° Southwest 320 368 34,300 850 Climbing Atlanta Center
Sun 04:09:56 PM 32.5214 -86.6058 221° Southwest 315 362 35,000 350 Climbing Atlanta Center
Sun 04:10:56 PM 32.4636 -86.6731 224° Southwest 315 362 35,000  Level Atlanta Center
Sun 04:11:56 PM 32.3786 -86.7492 217° Southwest 328 377 35,000  Level Atlanta Center
Sun 04:12:56 PM 32.3017 -86.8256 220° Southwest 356 410 35,000  Level Atlanta Center
Sun 04:13:56 PM 32.2183 -86.9064 219° Southwest 377 434 35,000  Level Atlanta Center
Sun 04:14:56 PM 32.1350 -86.9894 220° Southwest 391 450 35,000 200 Level Atlanta Center
Sun 04:15:56 PM 32.0517 -87.0700 219° Southwest 391 450 35,400 400 Climbing Atlanta Center
Sun 04:16:56 PM 31.9683 -87.1528 220° Southwest 391 450 35,800 224 Climbing Atlanta Center
Sun 04:18:37 PM 31.8300 -87.2869 220° Southwest 394 453 36,000 74 Climbing Houston Center
Sun 04:19:39 PM 31.7467 -87.3708 221° Southwest 394 453 36,000  Level Houston Center
Sun 04:20:41 PM 31.6614 -87.4528 219° Southwest 395 455 36,000  Level Houston Center
Sun 04:21:43 PM 31.5772 -87.5364 220° Southwest 395 455 36,000  Level Houston Center
Sun 04:22:46 PM 31.4922 -87.6186 220° Southwest 396 456 36,000  Level Houston Center
Sun 04:23:48 PM 31.3903 -87.7183 220° Southwest 397 457 36,000  Level Houston Center
Sun 04:24:50 PM 31.3050 -87.8019 220° Southwest 398 458 36,000  Level Houston Center
Sun 04:25:52 PM 31.2214 -87.8828 220° Southwest 391 450 36,000  Level Houston Center
Sun 04:26:54 PM 31.1364 -87.9639 219° Southwest 392 451 36,000  Level Houston Center
Sun 04:27:56 PM 31.0550 -88.0419 219° Southwest 384 442 36,000  Level Houston Center
Sun 04:28:58 PM 30.9758 -88.1183 220° Southwest 374 430 36,000  Level Houston Center
Sun 04:30:00 PM 30.8769 -88.2108 219° Southwest 379 436 36,000  Level Houston Center
Sun 04:31:02 PM 30.7969 -88.2892 220° Southwest 374 430 36,000  Level Houston Center
Sun 04:32:04 PM 30.7222 -88.3789 226° Southwest 389 448 36,000  Level Houston Center
Sun 04:33:06 PM 30.6847 -88.5114 252° West 405 466 36,000  Level Houston Center
Sun 04:34:08 PM 30.6536 -88.6403 254° West 410 472 36,000  Level Houston Center
Sun 04:35:10 PM 30.6222 -88.7683 254° West 413 475 36,000  Level Houston Center
Sun 04:36:13 PM 30.5903 -88.8950 254° West 409 471 36,000  Level Houston Center
Sun 04:37:15 PM 30.5564 -89.0358 254° West 407 468 36,000  Level Houston Center
Sun 04:38:17 PM 30.5236 -89.1619 253° West 408 470 36,000  Level Houston Center
Sun 04:39:19 PM 30.4914 -89.2872 253° West 407 468 36,000  Level Houston Center
Sun 04:40:21 PM 30.4608 -89.4122 254° West 405 466 36,000  Level Houston Center
Sun 04:41:23 PM 30.4233 -89.5611 254° West 403 464 36,000  Level Houston Center
Sun 04:42:25 PM 30.3889 -89.6911 253° West 412 474 36,000  Level Houston Center
Sun 04:43:27 PM 30.3556 -89.8000 250° West 418 481 36,000  Level Houston Center
Sun 04:44:29 PM 30.3197 -89.9578 255° West 419 482 36,000  Level Houston Center
Sun 04:45:31 PM 30.2867 -90.0850 253° West 419 482 36,000  Level Houston Center
Sun 04:46:33 PM 30.2528 -90.2122 253° West 416 479 36,000  Level Houston Center
Sun 04:47:35 PM 30.2189 -90.3392 253° West 414 476 36,000  Level Houston Center
Sun 04:48:38 PM 30.1850 -90.4653 253° West 411 473 36,000  Level Houston Center
Sun 04:49:40 PM 30.1519 -90.5908 253° West 410 472 36,000  Level Houston Center
Sun 04:50:42 PM 30.1128 -90.7372 253° West 400 460 36,000  Level Houston Center
Sun 04:51:44 PM 30.0806 -90.8578 253° West 396 456 36,000 -48 Level Houston Center
Sun 04:52:46 PM 30.0472 -90.9783 252° West 395 455 35,900  Descending Houston Center
Sun 04:53:48 PM 30.0158 -91.0972 253° West 391 450 36,000 48 Climbing Houston Center
Sun 04:54:50 PM 29.9836 -91.2161 253° West 390 449 36,000  Level Houston Center
Sun 04:55:52 PM 29.9511 -91.3328 252° West 385 443 36,000  Level Houston Center
Sun 04:56:54 PM 29.9133 -91.4725 253° West 382 440 36,000  Level Houston Center
Sun 04:57:56 PM 29.8817 -91.5881 252° West 379 436 36,000  Level Houston Center
Sun 04:58:59 PM 29.8489 -91.7047 252° West 382 440 36,000  Level Houston Center
Sun 05:00:01 PM 29.8161 -91.8278 253° West 385 443 36,000  Level Houston Center
Sun 05:01:03 PM 29.7819 -91.9453 252° West 387 445 36,000  Level Houston Center
Sun 05:02:05 PM 29.7494 -92.0633 252° West 388 447 36,000  Level Houston Center
Sun 05:03:07 PM 29.7169 -92.1822 253° West 388 447 36,000  Level Houston Center
Sun 05:04:09 PM 29.6767 -92.3231 252° West 387 445 36,000  Level Houston Center
Sun 05:05:11 PM 29.6561 -92.4458 259° West 391 450 36,000  Level Houston Center
Sun 05:06:13 PM 29.6478 -92.5711 266° West 394 453 36,000  Level Houston Center
Sun 05:07:15 PM 29.6386 -92.6967 265° West 394 453 36,000  Level Houston Center
Sun 05:08:17 PM 29.6283 -92.8231 265° West 397 457 36,000 -48 Level Houston Center
Sun 05:09:19 PM 29.6161 -92.9492 264° West 397 457 35,900  Descending Houston Center
Sun 05:10:21 PM 29.5833 -93.1000 256° West 405 466 36,000 48 Climbing Houston Center
Sun 05:11:23 PM 29.5519 -93.2264 254° West 410 472 36,000 -432 Level Houston Center
Sun 05:12:26 PM 29.5358 -93.3589 262° West 419 482 35,100 -1,392 Descending Houston Center
Sun 05:13:28 PM 29.5356 -93.4925 270° West 419 482 33,100 -2,468 Descending Houston Center
Sun 05:14:30 PM 29.5353 -93.6250 270° West 415 478 30,000 -3,194 Descending Houston Center
Sun 05:15:32 PM 29.5344 -93.7622 270° West 425 489 26,500 -3,435 Descending Houston Center
Sun 05:16:34 PM 29.5347 -93.8958 270° West 420 483 22,900 -3,743 Descending Houston Center
Sun 05:17:21 PM 29.5350 -94.0181 270° West 408 470 19,700 -4,065 Descending Houston Center
Sun 05:17:36 PM 29.5339 -94.0511 268° West 409 471 18,700 -3,429 Descending Houston Center
Sun 05:18:38 PM 29.5336 -94.1775 270° West 400 460 15,300 -2,765 Descending Houston Center
Sun 05:19:31 PM 29.5325 -94.2853 269° West 357 411 13,400 -1,714 Descending Houston Center
Sun 05:20:37 PM 29.5567 -94.4000 284° West 336 387 11,900 -1,406 Descending Houston Center
Sun 05:21:39 PM 29.5972 -94.4933 297° West 304 350 10,400 -1,487 Descending Houston Center
Sun 05:22:34 PM 29.6278 -94.5686 295° West 283 326 9,000 -1,345 Descending Houston Center
Sun 05:23:35 PM 29.6631 -94.6483 297° West 276 318 7,800 -1,082 Descending Houston Center
Sun 05:24:36 PM 29.7208 -94.7036 320° Northwest 271 312 6,800 -947 Descending Houston Center
Sun 05:24:51 PM 29.7333 -94.7119 330° Northwest 273 314 6,600 -1,082 Descending Houston Center
Sun 05:25:37 PM 29.7825 -94.7536 324° Northwest 273 314 5,700 -968 Descending Houston Center
Sun 05:25:53 PM 29.7947 -94.7628 327° Northwest 273 314 5,600 -968 Descending Houston Center
Sun 05:26:39 PM 29.8464 -94.8081 323° Northwest 267 307 4,700 -968 Descending Houston Center
Sun 05:26:55 PM 29.8539 -94.8125 333° Northwest 266 306 4,600 -492 Descending Houston Center
Sun 05:27:40 PM 29.9056 -94.8561 324° Northwest 262 302 4,200 -484 Descending Houston Center
Sun 05:27:57 PM 29.9128 -94.8617 326° Northwest 264 304 4,100 -197 Descending Houston Center
Sun 05:28:41 PM 29.9536 -94.9178 310° West 249 287 4,000 -97 Descending Houston Center
Sun 05:28:59 PM 29.9639 -94.9344 305° West 244 281 4,000  Level Houston Center
Sun 05:29:43 PM 29.9761 -94.9800 287° West 213 245 4,000  Level Houston Center
Sun 05:30:01 PM 29.9778 -94.9989 276° West 220 253 4,000  Level Houston Center
Sun 05:30:44 PM 29.9769 -95.0547 269° West 216 249 4,000 -194 Level Houston Center
Sun 05:31:03 PM 29.9783 -95.0703 276° West 220 253 3,800 -984 Descending Houston Center
Sun 05:31:45 PM 29.9772 -95.1247 269° West 217 250 3,000 -871 Descending Houston Center
Sun 05:32:05 PM 29.9781 -95.1392 274° West 218 251 2,900 -984 Descending Houston Center
Sun 05:32:46 PM 29.9767 -95.1875 268° West 192 221 2,000 -1,065 Descending Houston Center
Sun 05:33:07 PM 29.9778 -95.2006 276° West 203 234 1,800 -885 Descending Houston Center
Sun 05:33:47 PM 29.9778 -95.2450 270° West 146 168 1,100 -968 Descending Houston Center
Sun 05:34:09 PM 29.9778 -95.2636 270° West 181 208 800 -500 Descending Houston Center
Sun 05:35:11 PM 29.9778 -95.3039 270° West 156 180 400 -387 Descending Houston Center
Sun 05:37:00 PM 29.9833 -95.3333 311° West  Level FlightAware Approximate

Login

Don't have an account? Register now (free) for customized features, flight alerts, and more!